METAR Data
IDs: Format: Raw Decoded Include TAF

Data at: 2138 UTC 18 Apr 2021

ETIH 182056Z AUTO 00000KT 9999 OVC095 06/M16 A3010 RMK AO2 SLP206 T00561163 51006